Time;durP1;ratioP1;P1;durP2;ratioP2;P2;SDS_P1;SDS_P2;PMS_P1;PMS_P2;Temp;Humidity;BMP_temperature;BMP_pressure;BME280_temperature;BME280_humidity;BME280_pressure;Samples;Min_cycle;Max_cycle;Signal;HPM_P1;HPM_P2
2023/05/21 00:00:40;;;;;;;4.82;4.43;;;;;;;;;;5139095;28;20206;-66
2023/05/21 00:03:12;;;;;;;5.28;4.78;;;;;;;;;;5138714;28;20229;-66
2023/05/21 00:05:39;;;;;;;5.28;4.82;;;;;;;;;;5139126;28;20226;-66
2023/05/21 00:08:07;;;;;;;4.65;4.32;;;;;;;;;;5138901;28;20202;-66
2023/05/21 00:10:34;;;;;;;4.90;4.50;;;;;;;;;;5139310;28;20233;-66
2023/05/21 00:13:02;;;;;;;5.55;5.05;;;;;;;;;;5138721;28;20233;-66
2023/05/21 00:15:31;;;;;;;4.80;4.40;;;;;;;;;;5141303;27;20600;-66
2023/05/21 00:17:58;;;;;;;4.82;4.43;;;;;;;;;;5143189;27;20592;-66
2023/05/21 00:20:28;;;;;;;4.93;4.53;;;;;;;;;;5142688;27;20213;-66
2023/05/21 00:22:55;;;;;;;5.10;4.70;;;;;;;;;;5142894;27;20549;-66
2023/05/21 00:25:22;;;;;;;4.85;4.50;;;;;;;;;;5142181;27;20190;-66
2023/05/21 00:27:50;;;;;;;5.38;4.97;;;;;;;;;;5142464;27;20237;-66
2023/05/21 00:30:17;;;;;;;5.25;4.85;;;;;;;;;;5142641;27;20202;-66
2023/05/21 00:32:46;;;;;;;4.70;4.35;;;;;;;;;;5142421;27;20676;-67
2023/05/21 00:35:13;;;;;;;4.95;4.55;;;;;;;;;;5142566;27;20287;-66
2023/05/21 00:37:41;;;;;;;5.30;4.90;;;;;;;;;;5143052;27;20202;-66
2023/05/21 00:40:09;;;;;;;5.00;4.60;;;;;;;;;;5142546;27;20263;-66
2023/05/21 00:42:38;;;;;;;5.03;4.63;;;;;;;;;;5141494;27;20292;-66
2023/05/21 00:45:06;;;;;;;5.25;4.85;;;;;;;;;;5142352;27;20202;-66
2023/05/21 00:47:34;;;;;;;5.07;4.68;;;;;;;;;;5142344;27;20475;-66
2023/05/21 00:50:02;;;;;;;5.30;4.90;;;;;;;;;;5142547;27;20209;-66
2023/05/21 00:52:30;;;;;;;5.28;4.88;;;;;;;;;;5141967;27;20202;-66
2023/05/21 00:54:58;;;;;;;4.97;4.57;;;;;;;;;;5141799;27;20202;-66
2023/05/21 00:57:27;;;;;;;4.90;4.50;;;;;;;;;;5142065;27;20225;-66
2023/05/21 00:59:54;;;;;;;4.78;4.45;;;;;;;;;;5142208;27;20210;-66
2023/05/21 01:02:22;;;;;;;5.10;4.70;;;;;;;;;;5142247;27;20213;-66
2023/05/21 01:04:50;;;;;;;4.90;4.50;;;;;;;;;;5142301;27;20550;-66
2023/05/21 01:07:19;;;;;;;5.00;4.60;;;;;;;;;;5141489;27;20202;-66
2023/05/21 01:09:47;;;;;;;5.07;4.75;;;;;;;;;;5142027;27;20566;-66
2023/05/21 01:12:14;;;;;;;4.55;4.25;;;;;;;;;;5141933;27;20202;-66
2023/05/21 01:14:42;;;;;;;5.20;4.80;;;;;;;;;;5141821;27;20288;-66
2023/05/21 01:17:10;;;;;;;4.90;4.50;;;;;;;;;;5141805;27;20210;-66
2023/05/21 01:19:37;;;;;;;5.10;4.70;;;;;;;;;;5141893;27;20210;-66
2023/05/21 01:22:05;;;;;;;4.88;4.47;;;;;;;;;;5141254;27;20219;-66
2023/05/21 01:24:35;;;;;;;5.30;4.88;;;;;;;;;;5141377;27;20198;-66
2023/05/21 01:27:05;;;;;;;4.82;4.53;;;;;;;;;;5139917;27;20202;-66
2023/05/21 01:29:32;;;;;;;5.10;4.70;;;;;;;;;;5142161;27;20202;-66
2023/05/21 01:32:05;;;;;;;5.25;4.85;;;;;;;;;;5141201;27;20213;-66
2023/05/21 01:34:35;;;;;;;5.30;4.90;;;;;;;;;;5141689;27;20225;-66
2023/05/21 01:37:07;;;;;;;5.00;4.60;;;;;;;;;;5141235;27;20210;-66
2023/05/21 01:39:37;;;;;;;5.18;4.78;;;;;;;;;;5141154;27;20202;-66
2023/05/21 01:42:06;;;;;;;4.82;4.50;;;;;;;;;;5140807;27;20202;-66
2023/05/21 01:44:34;;;;;;;5.22;4.78;;;;;;;;;;5141660;27;20209;-66
2023/05/21 01:47:02;;;;;;;5.15;4.75;;;;;;;;;;5141518;27;20510;-66
2023/05/21 01:49:30;;;;;;;4.97;4.57;;;;;;;;;;5141788;27;20241;-66
2023/05/21 01:51:58;;;;;;;4.90;4.50;;;;;;;;;;5141189;27;20206;-66
2023/05/21 01:54:25;;;;;;;5.63;5.13;;;;;;;;;;5140680;27;20237;-66
2023/05/21 01:56:54;;;;;;;5.25;4.85;;;;;;;;;;5141334;27;20206;-66
2023/05/21 01:59:21;;;;;;;5.25;4.85;;;;;;;;;;5141074;27;20237;-66
2023/05/21 02:01:49;;;;;;;5.25;4.85;;;;;;;;;;5140874;27;20206;-66
2023/05/21 02:04:16;;;;;;;5.22;4.82;;;;;;;;;;5141050;27;20559;-66
2023/05/21 02:06:44;;;;;;;5.18;4.78;;;;;;;;;;5140992;27;20213;-66
2023/05/21 02:09:11;;;;;;;4.60;4.30;;;;;;;;;;5140848;27;20202;-66
2023/05/21 02:11:38;;;;;;;4.90;4.60;;;;;;;;;;5140834;27;20203;-66
2023/05/21 02:14:09;;;;;;;5.47;5.07;;;;;;;;;;5140542;27;20651;-66
2023/05/21 02:16:37;;;;;;;5.10;4.70;;;;;;;;;;5140856;27;20661;-66
2023/05/21 02:19:05;;;;;;;5.40;5.00;;;;;;;;;;5140726;27;20647;-66
2023/05/21 02:21:32;;;;;;;5.57;5.18;;;;;;;;;;5140483;27;20297;-66
2023/05/21 02:24:00;;;;;;;5.22;4.82;;;;;;;;;;5140411;27;20202;-66
2023/05/21 02:26:27;;;;;;;5.18;4.82;;;;;;;;;;5140821;27;20209;-66
2023/05/21 02:28:55;;;;;;;5.15;4.75;;;;;;;;;;5140013;27;20621;-66
2023/05/21 02:31:23;;;;;;;5.50;5.10;;;;;;;;;;5140245;27;20209;-66
2023/05/21 02:33:51;;;;;;;5.03;4.63;;;;;;;;;;5140524;27;20233;-66
2023/05/21 02:36:18;;;;;;;5.65;5.22;;;;;;;;;;5140861;27;20602;-66
2023/05/21 02:38:46;;;;;;;5.22;4.82;;;;;;;;;;5140027;27;20236;-66
2023/05/21 02:41:13;;;;;;;5.10;4.80;;;;;;;;;;5139974;27;20213;-66
2023/05/21 02:43:41;;;;;;;4.80;4.40;;;;;;;;;;5140088;27;20198;-66
2023/05/21 02:46:08;;;;;;;5.05;4.65;;;;;;;;;;5139891;27;20202;-66
2023/05/21 02:48:37;;;;;;;5.13;4.72;;;;;;;;;;5140261;27;20214;-66
2023/05/21 02:51:05;;;;;;;4.78;4.47;;;;;;;;;;5140101;27;20212;-66
2023/05/21 02:53:32;;;;;;;5.50;5.10;;;;;;;;;;5139877;27;20230;-66
2023/05/21 02:55:59;;;;;;;5.20;4.80;;;;;;;;;;5139874;27;20202;-66
2023/05/21 02:58:27;;;;;;;4.75;4.45;;;;;;;;;;5139710;27;20206;-66
2023/05/21 03:00:54;;;;;;;5.20;4.80;;;;;;;;;;5139790;27;20210;-66
2023/05/21 03:03:22;;;;;;;5.07;4.68;;;;;;;;;;5139788;27;20525;-66
2023/05/21 03:05:51;;;;;;;5.30;4.90;;;;;;;;;;5139409;27;20202;-66
2023/05/21 03:08:19;;;;;;;5.10;4.70;;;;;;;;;;5139935;27;20202;-66
2023/05/21 03:10:46;;;;;;;5.50;5.10;;;;;;;;;;5139516;27;20209;-66
2023/05/21 03:13:13;;;;;;;5.15;4.75;;;;;;;;;;5139753;27;20203;-66
2023/05/21 03:15:42;;;;;;;4.80;4.50;;;;;;;;;;5139564;27;20202;-66
2023/05/21 03:18:10;;;;;;;5.20;4.80;;;;;;;;;;5139499;27;20476;-66
2023/05/21 03:20:42;;;;;;;5.32;4.93;;;;;;;;;;5139367;27;20206;-66
2023/05/21 03:23:11;;;;;;;5.22;4.82;;;;;;;;;;5139783;27;20210;-66
2023/05/21 03:25:39;;;;;;;5.50;5.10;;;;;;;;;;5139837;27;20262;-66
2023/05/21 03:28:08;;;;;;;5.28;4.88;;;;;;;;;;5139235;27;20320;-66
2023/05/21 03:30:37;;;;;;;4.80;4.50;;;;;;;;;;5139073;27;20267;-66
2023/05/21 03:33:05;;;;;;;5.10;4.78;;;;;;;;;;5139197;27;20210;-66
2023/05/21 03:35:32;;;;;;;4.90;4.50;;;;;;;;;;5139112;27;20279;-66
2023/05/21 03:38:00;;;;;;;5.03;4.63;;;;;;;;;;5139459;27;20545;-66
2023/05/21 03:40:29;;;;;;;5.18;4.78;;;;;;;;;;5139086;27;20636;-66
2023/05/21 03:42:57;;;;;;;4.90;4.60;;;;;;;;;;5139090;27;20267;-66
2023/05/21 03:45:24;;;;;;;5.05;4.72;;;;;;;;;;5139138;27;20198;-66
2023/05/21 03:47:51;;;;;;;4.72;4.43;;;;;;;;;;5139154;27;20202;-66
2023/05/21 03:50:19;;;;;;;4.90;4.60;;;;;;;;;;5138379;27;20202;-66
2023/05/21 03:52:46;;;;;;;5.10;4.70;;;;;;;;;;5139449;27;20202;-66
2023/05/21 03:55:13;;;;;;;5.28;4.88;;;;;;;;;;5138689;27;20699;-66
2023/05/21 03:57:43;;;;;;;5.13;4.72;;;;;;;;;;5139186;28;20210;-66
2023/05/21 04:00:11;;;;;;;5.13;4.72;;;;;;;;;;5138508;28;20274;-66
2023/05/21 04:02:38;;;;;;;5.20;4.80;;;;;;;;;;5138586;28;20589;-66
2023/05/21 04:05:06;;;;;;;5.20;4.80;;;;;;;;;;5138483;28;20234;-66
2023/05/21 04:07:33;;;;;;;5.15;4.75;;;;;;;;;;5138276;28;20563;-66
2023/05/21 04:10:02;;;;;;;5.18;4.78;;;;;;;;;;5139126;28;20202;-66
2023/05/21 04:12:30;;;;;;;4.95;4.55;;;;;;;;;;5138917;28;20282;-66
2023/05/21 04:14:59;;;;;;;5.18;4.78;;;;;;;;;;5138750;28;20225;-66
2023/05/21 04:17:27;;;;;;;5.05;4.70;;;;;;;;;;5139143;28;20210;-66
2023/05/21 04:19:54;;;;;;;5.40;5.00;;;;;;;;;;5138969;28;20213;-66
2023/05/21 04:22:25;;;;;;;4.72;4.43;;;;;;;;;;5138867;28;20478;-66
2023/05/21 04:24:53;;;;;;;5.22;4.82;;;;;;;;;;5138577;28;20488;-66
2023/05/21 04:27:22;;;;;;;4.75;4.45;;;;;;;;;;5137962;28;20270;-66
2023/05/21 04:29:49;;;;;;;5.00;4.70;;;;;;;;;;5138278;28;20279;-66
2023/05/21 04:32:19;;;;;;;5.15;4.75;;;;;;;;;;5138182;28;20213;-66
2023/05/21 04:34:47;;;;;;;4.90;4.60;;;;;;;;;;5138369;28;20230;-66
2023/05/21 04:37:16;;;;;;;5.20;4.82;;;;;;;;;;5138867;28;20543;-66
2023/05/21 04:39:43;;;;;;;4.80;4.40;;;;;;;;;;5138118;28;20297;-66
2023/05/21 04:42:11;;;;;;;5.13;4.75;;;;;;;;;;5138642;28;20583;-66
2023/05/21 04:44:39;;;;;;;5.13;4.75;;;;;;;;;;5138548;28;20268;-66
2023/05/21 04:47:06;;;;;;;4.72;4.38;;;;;;;;;;5138793;28;20194;-66
2023/05/21 04:49:35;;;;;;;5.18;4.78;;;;;;;;;;5138273;28;20203;-66
2023/05/21 04:52:03;;;;;;;5.30;4.90;;;;;;;;;;5138889;28;20202;-66
2023/05/21 04:54:30;;;;;;;5.20;4.80;;;;;;;;;;5137971;28;20218;-66
2023/05/21 04:56:57;;;;;;;5.00;4.60;;;;;;;;;;5137895;28;20202;-66
2023/05/21 04:59:25;;;;;;;5.00;4.70;;;;;;;;;;5138436;28;20202;-66
2023/05/21 05:01:52;;;;;;;5.35;4.95;;;;;;;;;;5140749;27;20203;-66
2023/05/21 05:04:19;;;;;;;4.97;4.57;;;;;;;;;;5141886;27;20198;-66
2023/05/21 05:06:49;;;;;;;4.65;4.35;;;;;;;;;;5141552;27;20210;-66
2023/05/21 05:09:16;;;;;;;4.55;4.25;;;;;;;;;;5142216;27;20209;-66
2023/05/21 05:11:43;;;;;;;5.03;4.63;;;;;;;;;;5141976;27;20194;-66
2023/05/21 05:14:10;;;;;;;4.80;4.50;;;;;;;;;;5141789;27;20464;-66
2023/05/21 05:16:38;;;;;;;5.13;4.75;;;;;;;;;;5141960;27;20202;-66
2023/05/21 05:19:06;;;;;;;5.10;4.70;;;;;;;;;;5141725;27;20210;-66
2023/05/21 05:21:33;;;;;;;5.00;4.60;;;;;;;;;;5141525;27;20259;-66
2023/05/21 05:24:02;;;;;;;4.50;4.15;;;;;;;;;;5142107;27;20263;-66
2023/05/21 05:26:29;;;;;;;4.63;4.32;;;;;;;;;;5141962;27;20202;-66
2023/05/21 05:28:56;;;;;;;5.03;4.63;;;;;;;;;;5141274;27;20234;-66
2023/05/21 05:31:24;;;;;;;5.00;4.60;;;;;;;;;;5141494;27;20605;-66
2023/05/21 05:33:51;;;;;;;4.75;4.35;;;;;;;;;;5141257;27;20265;-67
2023/05/21 05:36:19;;;;;;;4.90;4.60;;;;;;;;;;5141465;27;20485;-66
2023/05/21 05:38:47;;;;;;;5.00;4.60;;;;;;;;;;5141037;27;20304;-66
2023/05/21 05:41:16;;;;;;;4.57;4.28;;;;;;;;;;5141423;27;20217;-66
2023/05/21 05:43:43;;;;;;;5.10;4.70;;;;;;;;;;5141338;27;20242;-66
2023/05/21 05:46:11;;;;;;;5.35;4.95;;;;;;;;;;5141764;27;20199;-66
2023/05/21 05:48:38;;;;;;;5.05;4.65;;;;;;;;;;5141457;27;20202;-66
2023/05/21 05:51:06;;;;;;;5.40;5.00;;;;;;;;;;5141611;27;20202;-66
2023/05/21 05:53:33;;;;;;;4.88;4.50;;;;;;;;;;5141354;27;20202;-66
2023/05/21 05:56:00;;;;;;;4.88;4.57;;;;;;;;;;5141432;27;20233;-66
2023/05/21 05:58:30;;;;;;;4.80;4.50;;;;;;;;;;5141094;27;20202;-66
2023/05/21 06:00:58;;;;;;;4.95;4.55;;;;;;;;;;5141219;27;20202;-66
2023/05/21 06:03:25;;;;;;;5.25;4.85;;;;;;;;;;5140869;27;20202;-66
2023/05/21 06:05:53;;;;;;;4.70;4.40;;;;;;;;;;5140897;27;20199;-66
2023/05/21 06:08:20;;;;;;;4.78;4.47;;;;;;;;;;5141088;27;20266;-66
2023/05/21 06:10:47;;;;;;;4.95;4.65;;;;;;;;;;5140914;27;20462;-66
2023/05/21 06:13:15;;;;;;;4.53;4.22;;;;;;;;;;5140230;27;20612;-66
2023/05/21 06:15:44;;;;;;;4.90;4.57;;;;;;;;;;5140853;27;20498;-66
2023/05/21 06:18:11;;;;;;;5.20;4.80;;;;;;;;;;5140340;27;20214;-66
2023/05/21 06:20:38;;;;;;;5.07;4.65;;;;;;;;;;5140746;27;20203;-66
2023/05/21 06:23:07;;;;;;;5.13;4.72;;;;;;;;;;5140953;27;20202;-66
2023/05/21 06:25:34;;;;;;;5.10;4.70;;;;;;;;;;5140304;27;20476;-66
2023/05/21 06:28:02;;;;;;;4.70;4.40;;;;;;;;;;5140017;27;20516;-66
2023/05/21 06:30:29;;;;;;;4.85;4.47;;;;;;;;;;5139970;27;20203;-66
2023/05/21 06:32:58;;;;;;;5.20;4.80;;;;;;;;;;5140153;27;20202;-66
2023/05/21 06:35:25;;;;;;;4.95;4.55;;;;;;;;;;5139932;27;20222;-66
2023/05/21 06:37:53;;;;;;;4.70;4.40;;;;;;;;;;5140669;27;20209;-66
2023/05/21 06:40:20;;;;;;;4.22;3.92;;;;;;;;;;5140095;27;20206;-66
2023/05/21 06:42:48;;;;;;;4.60;4.20;;;;;;;;;;5139949;27;20213;-66
2023/05/21 06:45:15;;;;;;;5.40;5.00;;;;;;;;;;5140269;27;20198;-66
2023/05/21 06:47:42;;;;;;;4.90;4.60;;;;;;;;;;5140104;27;20202;-66
2023/05/21 06:50:11;;;;;;;4.78;4.47;;;;;;;;;;5140171;27;20202;-66
2023/05/21 06:52:39;;;;;;;4.68;4.38;;;;;;;;;;5139699;27;21169;-66
2023/05/21 06:55:07;;;;;;;4.75;4.45;;;;;;;;;;5139781;27;20251;-66
2023/05/21 06:57:34;;;;;;;4.82;4.53;;;;;;;;;;5139259;27;20209;-66
2023/05/21 07:00:01;;;;;;;4.47;4.18;;;;;;;;;;5139099;27;20213;-66
2023/05/21 07:02:29;;;;;;;4.75;4.45;;;;;;;;;;5140050;27;20317;-66
2023/05/21 07:04:56;;;;;;;4.72;4.43;;;;;;;;;;5139918;27;20198;-66
2023/05/21 07:07:26;;;;;;;4.47;4.18;;;;;;;;;;5139385;27;20209;-66
2023/05/21 07:09:53;;;;;;;4.43;4.13;;;;;;;;;;5139315;27;20579;-66
2023/05/21 07:12:21;;;;;;;4.85;4.53;;;;;;;;;;5139401;27;20202;-66
2023/05/21 07:14:48;;;;;;;5.00;4.60;;;;;;;;;;5139005;27;20229;-66
2023/05/21 07:17:15;;;;;;;4.75;4.45;;;;;;;;;;5139180;27;20206;-66
2023/05/21 07:19:42;;;;;;;4.85;4.55;;;;;;;;;;5138730;27;20202;-66
2023/05/21 07:22:11;;;;;;;4.63;4.32;;;;;;;;;;5139191;27;20202;-66
2023/05/21 07:24:40;;;;;;;4.47;4.18;;;;;;;;;;5137552;27;20206;-66
2023/05/21 07:27:07;;;;;;;4.53;4.22;;;;;;;;;;5139033;27;20213;-66
2023/05/21 07:29:34;;;;;;;4.55;4.25;;;;;;;;;;5138950;27;20545;-66
2023/05/21 07:32:02;;;;;;;4.80;4.50;;;;;;;;;;5138642;27;20213;-66
2023/05/21 07:34:29;;;;;;;4.68;4.38;;;;;;;;;;5138240;27;20209;-66
2023/05/21 07:36:57;;;;;;;4.68;4.38;;;;;;;;;;5138800;27;20233;-66
2023/05/21 07:39:24;;;;;;;4.85;4.55;;;;;;;;;;5138137;27;20216;-66
2023/05/21 07:41:53;;;;;;;4.70;4.30;;;;;;;;;;5139127;27;20483;-66
2023/05/21 07:44:20;;;;;;;5.15;4.75;;;;;;;;;;5138920;27;20202;-67
2023/05/21 07:46:48;;;;;;;4.88;4.47;;;;;;;;;;5138682;27;20198;-66
2023/05/21 07:49:16;;;;;;;5.30;4.90;;;;;;;;;;5137979;27;20483;-66
2023/05/21 07:51:43;;;;;;;5.00;4.60;;;;;;;;;;5138038;27;20202;-66
2023/05/21 07:54:11;;;;;;;5.15;4.78;;;;;;;;;;5138343;27;20489;-66
2023/05/21 07:56:38;;;;;;;4.72;4.43;;;;;;;;;;5138214;27;20221;-66
2023/05/21 07:59:07;;;;;;;5.20;4.80;;;;;;;;;;5138654;27;20206;-66
2023/05/21 08:01:36;;;;;;;5.45;5.05;;;;;;;;;;5138127;28;20206;-66
2023/05/21 08:04:05;;;;;;;5.20;4.80;;;;;;;;;;5138546;28;20209;-66
2023/05/21 08:06:33;;;;;;;5.22;4.82;;;;;;;;;;5137540;28;20206;-66
2023/05/21 08:09:01;;;;;;;5.60;5.20;;;;;;;;;;5137996;28;20203;-66
2023/05/21 08:11:28;;;;;;;5.60;5.20;;;;;;;;;;5138459;28;20550;-66
2023/05/21 08:13:56;;;;;;;5.63;5.22;;;;;;;;;;5138003;28;20202;-66
2023/05/21 08:16:25;;;;;;;5.70;5.30;;;;;;;;;;5137908;28;20228;-66
2023/05/21 08:18:52;;;;;;;6.00;5.35;;;;;;;;;;5138751;28;20517;-66
2023/05/21 08:21:20;;;;;;;6.10;5.60;;;;;;;;;;5138011;28;20202;-66
2023/05/21 08:23:47;;;;;;;6.07;5.68;;;;;;;;;;5137420;28;20573;-66
2023/05/21 08:26:16;;;;;;;6.00;5.60;;;;;;;;;;5138029;28;20198;-66
2023/05/21 08:28:43;;;;;;;6.55;6.05;;;;;;;;;;5137935;28;20267;-66
2023/05/21 08:31:11;;;;;;;6.70;6.20;;;;;;;;;;5137776;28;20193;-67
2023/05/21 08:33:40;;;;;;;6.63;6.07;;;;;;;;;;5138089;28;20212;-66
2023/05/21 08:36:07;;;;;;;6.22;5.75;;;;;;;;;;5139562;27;20293;-66
2023/05/21 08:38:35;;;;;;;6.63;6.13;;;;;;;;;;5142460;27;20214;-66
2023/05/21 08:41:02;;;;;;;6.93;6.32;;;;;;;;;;5142328;27;20202;-66
2023/05/21 08:43:30;;;;;;;7.05;6.55;;;;;;;;;;5141133;27;20600;-66
2023/05/21 08:45:58;;;;;;;6.85;6.35;;;;;;;;;;5141370;27;20202;-66
2023/05/21 08:48:25;;;;;;;7.28;6.68;;;;;;;;;;5141634;27;20198;-66
2023/05/21 08:50:55;;;;;;;6.80;6.30;;;;;;;;;;5141574;27;20293;-66
2023/05/21 08:53:23;;;;;;;7.75;7.15;;;;;;;;;;5141667;27;20202;-66
2023/05/21 08:55:52;;;;;;;7.50;6.90;;;;;;;;;;5141282;27;20633;-66
2023/05/21 08:58:20;;;;;;;7.30;6.80;;;;;;;;;;5141963;27;20255;-66
2023/05/21 09:00:48;;;;;;;7.75;7.07;;;;;;;;;;5141203;27;20221;-66
2023/05/21 09:03:15;;;;;;;7.45;6.85;;;;;;;;;;5141627;27;20198;-66
2023/05/21 09:05:43;;;;;;;7.72;7.13;;;;;;;;;;5141166;27;20209;-66
2023/05/21 09:08:14;;;;;;;7.55;6.95;;;;;;;;;;5140506;27;20212;-66
2023/05/21 09:10:44;;;;;;;7.80;7.20;;;;;;;;;;5140511;27;20590;-66
2023/05/21 09:13:13;;;;;;;7.70;7.07;;;;;;;;;;5141129;27;20202;-66
2023/05/21 09:15:40;;;;;;;7.85;7.25;;;;;;;;;;5141191;27;20564;-66
2023/05/21 09:18:08;;;;;;;8.05;7.30;;;;;;;;;;5141117;27;20213;-66
2023/05/21 09:20:35;;;;;;;7.60;7.00;;;;;;;;;;5141027;27;20494;-66
2023/05/21 09:23:03;;;;;;;8.18;7.53;;;;;;;;;;5140734;27;20209;-66
2023/05/21 09:25:32;;;;;;;8.80;7.88;;;;;;;;;;5140216;27;20198;-66
2023/05/21 09:28:00;;;;;;;8.18;7.57;;;;;;;;;;5140177;27;20226;-66
2023/05/21 09:30:28;;;;;;;8.57;7.90;;;;;;;;;;5140364;27;20296;-66
2023/05/21 09:32:57;;;;;;;7.97;7.28;;;;;;;;;;5140729;27;20483;-67
2023/05/21 09:35:24;;;;;;;8.02;7.43;;;;;;;;;;5140066;27;20229;-66
2023/05/21 09:37:54;;;;;;;7.80;7.20;;;;;;;;;;5140449;27;20624;-66
2023/05/21 09:40:22;;;;;;;7.80;7.20;;;;;;;;;;5140434;27;20217;-66
2023/05/21 09:42:51;;;;;;;8.48;7.78;;;;;;;;;;5139992;27;20601;-66
2023/05/21 09:45:19;;;;;;;8.13;7.53;;;;;;;;;;5140440;27;20202;-66
2023/05/21 09:47:46;;;;;;;8.50;7.80;;;;;;;;;;5139388;27;20202;-67
2023/05/21 09:50:14;;;;;;;8.15;7.45;;;;;;;;;;5139881;27;20302;-66
2023/05/21 09:52:42;;;;;;;8.65;7.95;;;;;;;;;;5140219;27;20210;-66
2023/05/21 09:55:11;;;;;;;8.10;7.50;;;;;;;;;;5140656;27;20483;-66
2023/05/21 09:57:42;;;;;;;8.75;8.05;;;;;;;;;;5140306;27;20563;-66
2023/05/21 10:00:18;;;;;;;9.07;8.38;;;;;;;;;;5139610;27;20217;-66
2023/05/21 10:02:46;;;;;;;8.52;7.93;;;;;;;;;;5139993;27;20208;-66
2023/05/21 10:05:15;;;;;;;8.50;7.80;;;;;;;;;;5139441;27;20233;-66
2023/05/21 10:07:43;;;;;;;8.75;8.05;;;;;;;;;;5140140;27;20202;-66
2023/05/21 10:10:12;;;;;;;8.60;8.00;;;;;;;;;;5139918;27;20213;-66
2023/05/21 10:12:41;;;;;;;8.45;7.85;;;;;;;;;;5139074;27;20221;-66
2023/05/21 10:15:10;;;;;;;8.82;8.18;;;;;;;;;;5139264;27;20202;-66
2023/05/21 10:17:39;;;;;;;8.15;7.47;;;;;;;;;;5139771;27;20221;-66
2023/05/21 10:20:09;;;;;;;8.70;8.00;;;;;;;;;;5139073;27;20217;-66
2023/05/21 10:22:38;;;;;;;8.82;8.20;;;;;;;;;;5138984;27;20203;-66
2023/05/21 10:25:06;;;;;;;8.82;8.10;;;;;;;;;;5139994;27;20597;-66
2023/05/21 10:27:34;;;;;;;8.88;8.18;;;;;;;;;;5139217;27;20308;-66
2023/05/21 10:30:01;;;;;;;8.93;8.23;;;;;;;;;;5139194;27;20468;-66
2023/05/21 10:32:28;;;;;;;9.02;8.38;;;;;;;;;;5139130;27;20202;-66
2023/05/21 10:34:58;;;;;;;9.00;8.30;;;;;;;;;;5139246;27;20225;-66
2023/05/21 10:37:26;;;;;;;9.02;8.32;;;;;;;;;;5138903;27;20225;-66
2023/05/21 10:39:53;;;;;;;9.18;8.32;;;;;;;;;;5138681;27;20202;-66
2023/05/21 10:42:22;;;;;;;9.10;8.40;;;;;;;;;;5138925;27;20206;-66
2023/05/21 10:45:01;;;;;;;8.85;8.15;;;;;;;;;;5138816;27;20210;-66
2023/05/21 10:47:41;;;;;;;9.00;8.40;;;;;;;;;;5138214;27;20197;-66
2023/05/21 10:50:21;;;;;;;9.63;8.82;;;;;;;;;;5137740;27;20198;-66
2023/05/21 10:53:01;;;;;;;10.07;9.27;;;;;;;;;;5138105;27;20668;-66
2023/05/21 10:55:35;;;;;;;8.95;8.25;;;;;;;;;;5138328;27;20198;-66
2023/05/21 10:58:24;;;;;;;9.07;8.38;;;;;;;;;;5138280;27;20228;-66
2023/05/21 11:00:53;;;;;;;9.90;9.13;;;;;;;;;;5138502;27;20228;-66
2023/05/21 11:03:21;;;;;;;9.15;8.45;;;;;;;;;;5138178;27;20541;-66
2023/05/21 11:05:56;;;;;;;9.30;8.50;;;;;;;;;;5137972;27;20495;-66
2023/05/21 11:08:24;;;;;;;9.80;9.00;;;;;;;;;;5137206;27;20262;-66
2023/05/21 11:10:52;;;;;;;9.73;8.93;;;;;;;;;;5137746;27;20202;-66
2023/05/21 11:13:20;;;;;;;9.30;8.50;;;;;;;;;;5138151;27;20554;-66
2023/05/21 11:16:06;;;;;;;9.20;8.50;;;;;;;;;;5137151;27;20300;-66
2023/05/21 11:18:53;;;;;;;9.05;8.35;;;;;;;;;;5137049;27;20211;-66
2023/05/21 11:21:27;;;;;;;9.68;8.98;;;;;;;;;;5137250;27;20201;-66
2023/05/21 11:23:55;;;;;;;9.50;8.77;;;;;;;;;;5137565;27;20209;-66
2023/05/21 11:26:23;;;;;;;9.73;9.00;;;;;;;;;;5137651;27;20482;-66
2023/05/21 11:28:51;;;;;;;9.10;8.35;;;;;;;;;;5137267;27;20230;-66
2023/05/21 11:31:25;;;;;;;9.50;8.77;;;;;;;;;;5137247;27;20209;-66
2023/05/21 11:34:07;;;;;;;9.30;8.50;;;;;;;;;;5136945;27;20250;-66
2023/05/21 11:36:37;;;;;;;8.75;8.10;;;;;;;;;;5137457;27;20237;-66
2023/05/21 11:39:11;;;;;;;9.50;8.70;;;;;;;;;;5136960;27;20206;-66
2023/05/21 11:41:51;;;;;;;9.25;8.55;;;;;;;;;;5136960;27;20202;-66
2023/05/21 11:44:19;;;;;;;9.23;8.50;;;;;;;;;;5137436;27;20209;-66
2023/05/21 11:46:47;;;;;;;8.77;8.02;;;;;;;;;;5134645;27;20194;-66
2023/05/21 11:49:15;;;;;;;9.23;8.50;;;;;;;;;;5126039;27;20207;-66
2023/05/21 11:51:45;;;;;;;8.85;8.15;;;;;;;;;;5114916;27;20211;-66
2023/05/21 11:54:13;;;;;;;9.32;8.63;;;;;;;;;;5128327;27;20213;-66
2023/05/21 11:56:41;;;;;;;9.52;8.82;;;;;;;;;;5129031;27;20222;-66
2023/05/21 11:59:17;;;;;;;9.02;8.32;;;;;;;;;;5126309;28;20202;-66
2023/05/21 12:01:45;;;;;;;9.40;8.63;;;;;;;;;;5124013;28;20209;-66
2023/05/21 12:04:12;;;;;;;8.90;8.23;;;;;;;;;;5123347;28;20224;-66
2023/05/21 12:06:41;;;;;;;9.45;8.75;;;;;;;;;;5120830;28;20207;-66
2023/05/21 12:09:11;;;;;;;9.10;8.40;;;;;;;;;;5131233;28;20217;-66
2023/05/21 12:11:39;;;;;;;9.00;8.30;;;;;;;;;;5119362;27;20213;-66
2023/05/21 12:14:09;;;;;;;8.77;8.07;;;;;;;;;;5133290;27;20278;-66
2023/05/21 12:16:36;;;;;;;8.85;8.15;;;;;;;;;;5119638;27;20628;-66
2023/05/21 12:19:04;;;;;;;9.23;8.43;;;;;;;;;;5132378;27;20288;-66
2023/05/21 12:21:31;;;;;;;9.15;8.35;;;;;;;;;;5124412;27;20203;-66
2023/05/21 12:23:59;;;;;;;8.95;8.25;;;;;;;;;;5133422;27;20499;-66
2023/05/21 12:26:28;;;;;;;9.27;8.48;;;;;;;;;;5129419;27;20206;-66
2023/05/21 12:28:56;;;;;;;9.05;8.35;;;;;;;;;;5124718;27;20223;-66
2023/05/21 12:31:26;;;;;;;9.43;8.63;;;;;;;;;;5119937;28;20251;-66
2023/05/21 12:33:54;;;;;;;8.93;8.23;;;;;;;;;;5119985;28;20199;-66
2023/05/21 12:36:23;;;;;;;9.30;8.60;;;;;;;;;;5119908;28;20618;-66
2023/05/21 12:38:51;;;;;;;8.98;8.27;;;;;;;;;;5119946;28;20202;-66
2023/05/21 12:41:19;;;;;;;9.10;8.40;;;;;;;;;;5119726;28;20264;-66
2023/05/21 12:43:47;;;;;;;9.40;8.65;;;;;;;;;;5119404;28;20222;-66
2023/05/21 12:46:16;;;;;;;9.07;8.38;;;;;;;;;;5119669;28;20280;-66
2023/05/21 12:48:50;;;;;;;9.40;8.63;;;;;;;;;;5119319;28;20203;-66
2023/05/21 12:51:17;;;;;;;9.30;8.60;;;;;;;;;;5119662;28;20289;-66
2023/05/21 12:53:45;;;;;;;8.63;7.95;;;;;;;;;;5119631;28;20203;-67
2023/05/21 12:56:13;;;;;;;9.50;8.75;;;;;;;;;;5119249;28;20276;-66
2023/05/21 12:58:40;;;;;;;9.23;8.52;;;;;;;;;;5118882;28;20534;-67
2023/05/21 13:01:09;;;;;;;9.10;8.40;;;;;;;;;;5118484;28;20255;-67
2023/05/21 13:03:38;;;;;;;8.93;8.23;;;;;;;;;;5118234;28;20202;-67
2023/05/21 13:06:07;;;;;;;9.60;8.80;;;;;;;;;;5118991;28;20213;-66
2023/05/21 13:08:34;;;;;;;9.13;8.43;;;;;;;;;;5118815;28;20594;-66
2023/05/21 13:11:02;;;;;;;8.82;8.15;;;;;;;;;;5118911;28;20230;-67
2023/05/21 13:13:29;;;;;;;9.30;8.55;;;;;;;;;;5119326;28;20203;-66
2023/05/21 13:15:59;;;;;;;8.88;8.18;;;;;;;;;;5119141;28;20485;-67
2023/05/21 13:18:28;;;;;;;8.95;8.25;;;;;;;;;;5119033;28;20258;-67
2023/05/21 13:20:55;;;;;;;8.93;8.23;;;;;;;;;;5118551;28;20203;-67
2023/05/21 13:23:22;;;;;;;8.98;8.27;;;;;;;;;;5118799;28;20708;-67
2023/05/21 13:25:50;;;;;;;8.98;8.27;;;;;;;;;;5118643;28;20207;-66
2023/05/21 13:28:17;;;;;;;9.20;8.48;;;;;;;;;;5118277;28;20655;-67
2023/05/21 13:30:45;;;;;;;8.93;8.23;;;;;;;;;;5118563;28;20209;-66
2023/05/21 13:33:12;;;;;;;8.77;8.07;;;;;;;;;;5118313;28;20327;-66
2023/05/21 13:35:41;;;;;;;9.65;8.85;;;;;;;;;;5118260;28;20194;-66
2023/05/21 13:38:08;;;;;;;8.77;8.18;;;;;;;;;;5117502;28;20219;-67
2023/05/21 13:40:35;;;;;;;9.00;8.35;;;;;;;;;;5117302;28;20226;-67
2023/05/21 13:43:03;;;;;;;8.82;8.13;;;;;;;;;;5118202;28;20203;-67
2023/05/21 13:45:30;;;;;;;9.10;8.30;;;;;;;;;;5118921;28;20202;-67
2023/05/21 13:47:58;;;;;;;9.30;8.60;;;;;;;;;;5117517;28;20202;-67
2023/05/21 13:50:25;;;;;;;8.88;8.18;;;;;;;;;;5117166;28;20614;-67
2023/05/21 13:52:54;;;;;;;9.75;8.95;;;;;;;;;;5118654;28;20210;-66
2023/05/21 13:55:22;;;;;;;9.00;8.40;;;;;;;;;;5118896;28;20298;-67
2023/05/21 13:57:49;;;;;;;9.13;8.43;;;;;;;;;;5117752;28;20326;-67
2023/05/21 14:00:17;;;;;;;8.75;8.05;;;;;;;;;;5117582;28;20203;-66
2023/05/21 14:02:44;;;;;;;9.23;8.48;;;;;;;;;;5118236;28;20209;-67
2023/05/21 14:05:12;;;;;;;9.25;8.45;;;;;;;;;;5116555;28;20210;-67
2023/05/21 14:07:40;;;;;;;9.23;8.52;;;;;;;;;;5117998;28;20199;-67
2023/05/21 14:10:09;;;;;;;9.43;8.73;;;;;;;;;;5117629;28;20594;-67
2023/05/21 14:12:37;;;;;;;8.95;8.10;;;;;;;;;;5117993;28;20203;-67
2023/05/21 14:15:05;;;;;;;9.77;9.00;;;;;;;;;;5117813;28;20203;-67
2023/05/21 14:17:33;;;;;;;9.15;8.45;;;;;;;;;;5116432;28;20233;-67
2023/05/21 14:20:00;;;;;;;8.68;8.05;;;;;;;;;;5117081;28;20203;-67
2023/05/21 14:22:27;;;;;;;9.70;8.90;;;;;;;;;;5118019;28;20489;-67
2023/05/21 14:24:55;;;;;;;9.63;8.88;;;;;;;;;;5118212;28;20543;-67
2023/05/21 14:27:23;;;;;;;8.80;8.20;;;;;;;;;;5117602;28;20234;-67
2023/05/21 14:29:51;;;;;;;9.25;8.55;;;;;;;;;;5117378;28;20195;-66
2023/05/21 14:32:18;;;;;;;8.88;8.18;;;;;;;;;;5117089;28;20660;-67
2023/05/21 14:34:45;;;;;;;9.80;9.05;;;;;;;;;;5116447;28;20203;-67
2023/05/21 14:37:13;;;;;;;9.43;8.65;;;;;;;;;;5116923;28;20214;-67
2023/05/21 14:39:40;;;;;;;9.30;8.60;;;;;;;;;;5117132;28;20305;-67
2023/05/21 14:42:08;;;;;;;9.38;8.68;;;;;;;;;;5116518;28;20206;-67
2023/05/21 14:44:36;;;;;;;9.32;8.63;;;;;;;;;;5116669;28;20203;-67
2023/05/21 14:47:04;;;;;;;9.27;8.50;;;;;;;;;;5116992;28;20737;-67
2023/05/21 14:49:31;;;;;;;8.90;8.20;;;;;;;;;;5115334;28;20211;-67